sensor_id;sensor_type;location;lat;lon;timestamp;P1;durP1;ratioP1;P2;durP2;ratioP2
6485;SDS011;3276;48.490;9.222;2022-07-06T00:01:34;5.77;;;5.37;;
6485;SDS011;3276;48.490;9.222;2022-07-06T00:04:03;5.20;;;4.90;;
6485;SDS011;3276;48.490;9.222;2022-07-06T00:06:29;5.67;;;5.27;;
6485;SDS011;3276;48.490;9.222;2022-07-06T00:08:55;4.60;;;4.30;;
6485;SDS011;3276;48.490;9.222;2022-07-06T00:11:21;5.33;;;4.93;;
6485;SDS011;3276;48.490;9.222;2022-07-06T00:13:47;4.53;;;4.23;;
6485;SDS011;3276;48.490;9.222;2022-07-06T00:16:12;4.17;;;3.97;;
6485;SDS011;3276;48.490;9.222;2022-07-06T00:18:38;5.50;;;5.00;;
6485;SDS011;3276;48.490;9.222;2022-07-06T00:21:04;5.40;;;5.00;;
6485;SDS011;3276;48.490;9.222;2022-07-06T00:23:29;4.40;;;4.10;;
6485;SDS011;3276;48.490;9.222;2022-07-06T00:25:55;5.20;;;4.80;;
6485;SDS011;3276;48.490;9.222;2022-07-06T00:28:20;6.47;;;5.57;;
6485;SDS011;3276;48.490;9.222;2022-07-06T00:30:46;4.23;;;3.93;;
6485;SDS011;3276;48.490;9.222;2022-07-06T00:33:12;4.17;;;3.77;;
6485;SDS011;3276;48.490;9.222;2022-07-06T00:35:37;5.57;;;5.17;;
6485;SDS011;3276;48.490;9.222;2022-07-06T00:38:03;3.37;;;3.17;;
6485;SDS011;3276;48.490;9.222;2022-07-06T00:40:29;6.97;;;4.07;;
6485;SDS011;3276;48.490;9.222;2022-07-06T00:42:57;3.60;;;3.30;;
6485;SDS011;3276;48.490;9.222;2022-07-06T00:45:23;3.90;;;3.60;;
6485;SDS011;3276;48.490;9.222;2022-07-06T00:47:49;4.33;;;4.03;;
6485;SDS011;3276;48.490;9.222;2022-07-06T00:50:16;6.43;;;4.13;;
6485;SDS011;3276;48.490;9.222;2022-07-06T00:52:46;4.63;;;4.33;;
6485;SDS011;3276;48.490;9.222;2022-07-06T00:55:21;3.90;;;3.60;;
6485;SDS011;3276;48.490;9.222;2022-07-06T00:57:48;4.80;;;3.27;;
6485;SDS011;3276;48.490;9.222;2022-07-06T01:00:14;21.17;;;5.07;;
6485;SDS011;3276;48.490;9.222;2022-07-06T01:02:41;6.10;;;3.77;;
6485;SDS011;3276;48.490;9.222;2022-07-06T01:05:08;3.70;;;3.17;;
6485;SDS011;3276;48.490;9.222;2022-07-06T01:07:35;4.07;;;3.57;;
6485;SDS011;3276;48.490;9.222;2022-07-06T01:10:03;4.20;;;3.23;;
6485;SDS011;3276;48.490;9.222;2022-07-06T01:12:30;3.77;;;3.23;;
6485;SDS011;3276;48.490;9.222;2022-07-06T01:14:56;4.40;;;4.00;;
6485;SDS011;3276;48.490;9.222;2022-07-06T01:17:22;4.23;;;3.90;;
6485;SDS011;3276;48.490;9.222;2022-07-06T01:19:48;5.90;;;3.53;;
6485;SDS011;3276;48.490;9.222;2022-07-06T01:22:14;4.63;;;3.43;;
6485;SDS011;3276;48.490;9.222;2022-07-06T01:24:40;3.43;;;3.13;;
6485;SDS011;3276;48.490;9.222;2022-07-06T01:27:06;4.03;;;3.10;;
6485;SDS011;3276;48.490;9.222;2022-07-06T01:29:35;3.73;;;3.43;;
6485;SDS011;3276;48.490;9.222;2022-07-06T01:32:00;4.37;;;3.67;;
6485;SDS011;3276;48.490;9.222;2022-07-06T01:34:26;3.87;;;2.80;;
6485;SDS011;3276;48.490;9.222;2022-07-06T01:36:52;3.30;;;3.10;;
6485;SDS011;3276;48.490;9.222;2022-07-06T01:39:19;3.70;;;3.50;;
6485;SDS011;3276;48.490;9.222;2022-07-06T01:41:45;4.17;;;3.83;;
6485;SDS011;3276;48.490;9.222;2022-07-06T01:44:10;4.40;;;4.00;;
6485;SDS011;3276;48.490;9.222;2022-07-06T01:46:36;3.47;;;3.17;;
6485;SDS011;3276;48.490;9.222;2022-07-06T01:49:02;4.50;;;3.70;;
6485;SDS011;3276;48.490;9.222;2022-07-06T01:51:28;3.27;;;2.90;;
6485;SDS011;3276;48.490;9.222;2022-07-06T01:53:54;3.10;;;2.80;;
6485;SDS011;3276;48.490;9.222;2022-07-06T01:56:20;6.73;;;3.37;;
6485;SDS011;3276;48.490;9.222;2022-07-06T01:58:46;4.30;;;3.50;;
6485;SDS011;3276;48.490;9.222;2022-07-06T02:01:14;3.57;;;3.23;;
6485;SDS011;3276;48.490;9.222;2022-07-06T02:03:42;4.03;;;3.73;;
6485;SDS011;3276;48.490;9.222;2022-07-06T02:06:08;4.07;;;3.77;;
6485;SDS011;3276;48.490;9.222;2022-07-06T02:08:35;4.53;;;2.57;;
6485;SDS011;3276;48.490;9.222;2022-07-06T02:11:04;5.63;;;4.20;;
6485;SDS011;3276;48.490;9.222;2022-07-06T02:13:31;3.77;;;3.47;;
6485;SDS011;3276;48.490;9.222;2022-07-06T02:15:57;3.73;;;3.20;;
6485;SDS011;3276;48.490;9.222;2022-07-06T02:18:22;3.70;;;3.10;;
6485;SDS011;3276;48.490;9.222;2022-07-06T02:20:48;3.00;;;2.70;;
6485;SDS011;3276;48.490;9.222;2022-07-06T02:23:13;3.43;;;3.13;;
6485;SDS011;3276;48.490;9.222;2022-07-06T02:25:39;3.63;;;3.33;;
6485;SDS011;3276;48.490;9.222;2022-07-06T02:28:05;3.30;;;3.03;;
6485;SDS011;3276;48.490;9.222;2022-07-06T02:30:31;3.77;;;3.47;;
6485;SDS011;3276;48.490;9.222;2022-07-06T02:32:56;3.50;;;3.20;;
6485;SDS011;3276;48.490;9.222;2022-07-06T02:35:22;3.40;;;3.10;;
6485;SDS011;3276;48.490;9.222;2022-07-06T02:37:47;3.80;;;3.00;;
6485;SDS011;3276;48.490;9.222;2022-07-06T02:40:13;3.67;;;3.37;;
6485;SDS011;3276;48.490;9.222;2022-07-06T02:42:38;3.40;;;3.10;;
6485;SDS011;3276;48.490;9.222;2022-07-06T02:45:04;4.57;;;3.90;;
6485;SDS011;3276;48.490;9.222;2022-07-06T02:47:30;5.53;;;3.40;;
6485;SDS011;3276;48.490;9.222;2022-07-06T02:49:56;4.23;;;3.70;;
6485;SDS011;3276;48.490;9.222;2022-07-06T02:52:21;3.73;;;3.40;;
6485;SDS011;3276;48.490;9.222;2022-07-06T02:54:47;3.63;;;3.33;;
6485;SDS011;3276;48.490;9.222;2022-07-06T02:57:14;4.13;;;3.73;;
6485;SDS011;3276;48.490;9.222;2022-07-06T02:59:39;3.50;;;3.20;;
6485;SDS011;3276;48.490;9.222;2022-07-06T03:02:05;4.13;;;3.83;;
6485;SDS011;3276;48.490;9.222;2022-07-06T03:04:31;4.23;;;3.90;;
6485;SDS011;3276;48.490;9.222;2022-07-06T03:06:57;3.60;;;3.30;;
6485;SDS011;3276;48.490;9.222;2022-07-06T03:09:22;3.10;;;2.87;;
6485;SDS011;3276;48.490;9.222;2022-07-06T03:11:48;5.47;;;3.63;;
6485;SDS011;3276;48.490;9.222;2022-07-06T03:14:14;4.40;;;3.20;;
6485;SDS011;3276;48.490;9.222;2022-07-06T03:16:39;3.33;;;3.03;;
6485;SDS011;3276;48.490;9.222;2022-07-06T03:19:05;5.73;;;4.70;;
6485;SDS011;3276;48.490;9.222;2022-07-06T03:21:31;4.63;;;3.50;;
6485;SDS011;3276;48.490;9.222;2022-07-06T03:23:56;3.83;;;3.47;;
6485;SDS011;3276;48.490;9.222;2022-07-06T03:26:22;3.70;;;3.40;;
6485;SDS011;3276;48.490;9.222;2022-07-06T03:28:47;3.33;;;2.90;;
6485;SDS011;3276;48.490;9.222;2022-07-06T03:31:13;5.60;;;3.60;;
6485;SDS011;3276;48.490;9.222;2022-07-06T03:33:39;3.70;;;3.40;;
6485;SDS011;3276;48.490;9.222;2022-07-06T03:36:04;3.13;;;2.83;;
6485;SDS011;3276;48.490;9.222;2022-07-06T03:38:30;3.97;;;3.67;;
6485;SDS011;3276;48.490;9.222;2022-07-06T03:40:56;4.43;;;4.00;;
6485;SDS011;3276;48.490;9.222;2022-07-06T03:43:21;4.30;;;3.90;;
6485;SDS011;3276;48.490;9.222;2022-07-06T03:45:47;3.67;;;3.37;;
6485;SDS011;3276;48.490;9.222;2022-07-06T03:48:12;3.63;;;3.33;;
6485;SDS011;3276;48.490;9.222;2022-07-06T03:50:38;4.10;;;3.73;;
6485;SDS011;3276;48.490;9.222;2022-07-06T03:53:04;3.60;;;3.27;;
6485;SDS011;3276;48.490;9.222;2022-07-06T03:55:29;4.40;;;3.40;;
6485;SDS011;3276;48.490;9.222;2022-07-06T03:57:55;4.80;;;3.60;;
6485;SDS011;3276;48.490;9.222;2022-07-06T04:00:20;4.50;;;4.10;;
6485;SDS011;3276;48.490;9.222;2022-07-06T04:02:46;4.17;;;3.83;;
6485;SDS011;3276;48.490;9.222;2022-07-06T04:05:11;4.37;;;3.97;;
6485;SDS011;3276;48.490;9.222;2022-07-06T04:07:37;3.50;;;3.20;;
6485;SDS011;3276;48.490;9.222;2022-07-06T04:10:03;4.17;;;3.77;;
6485;SDS011;3276;48.490;9.222;2022-07-06T04:12:28;4.33;;;3.80;;
6485;SDS011;3276;48.490;9.222;2022-07-06T04:14:56;3.50;;;3.20;;
6485;SDS011;3276;48.490;9.222;2022-07-06T04:17:22;5.90;;;4.47;;
6485;SDS011;3276;48.490;9.222;2022-07-06T04:20:11;4.57;;;3.60;;
6485;SDS011;3276;48.490;9.222;2022-07-06T04:22:40;3.90;;;3.47;;
6485;SDS011;3276;48.490;9.222;2022-07-06T04:25:06;5.70;;;4.07;;
6485;SDS011;3276;48.490;9.222;2022-07-06T04:27:33;7.90;;;4.07;;
6485;SDS011;3276;48.490;9.222;2022-07-06T04:29:58;5.43;;;4.87;;
6485;SDS011;3276;48.490;9.222;2022-07-06T04:32:24;5.50;;;4.40;;
6485;SDS011;3276;48.490;9.222;2022-07-06T04:34:49;5.17;;;4.77;;
6485;SDS011;3276;48.490;9.222;2022-07-06T04:37:15;4.60;;;4.20;;
6485;SDS011;3276;48.490;9.222;2022-07-06T04:39:40;5.13;;;4.67;;
6485;SDS011;3276;48.490;9.222;2022-07-06T04:42:06;4.70;;;4.30;;
6485;SDS011;3276;48.490;9.222;2022-07-06T04:44:31;5.30;;;4.80;;
6485;SDS011;3276;48.490;9.222;2022-07-06T04:46:57;6.43;;;5.47;;
6485;SDS011;3276;48.490;9.222;2022-07-06T04:49:22;5.00;;;4.50;;
6485;SDS011;3276;48.490;9.222;2022-07-06T04:51:48;5.77;;;5.27;;
6485;SDS011;3276;48.490;9.222;2022-07-06T04:54:13;5.87;;;4.33;;
6485;SDS011;3276;48.490;9.222;2022-07-06T04:56:39;5.13;;;4.63;;
6485;SDS011;3276;48.490;9.222;2022-07-06T04:59:04;5.80;;;5.30;;
6485;SDS011;3276;48.490;9.222;2022-07-06T05:01:30;6.80;;;5.87;;
6485;SDS011;3276;48.490;9.222;2022-07-06T05:03:56;10.03;;;9.37;;
6485;SDS011;3276;48.490;9.222;2022-07-06T05:06:22;11.77;;;11.27;;
6485;SDS011;3276;48.490;9.222;2022-07-06T05:08:48;13.67;;;12.97;;
6485;SDS011;3276;48.490;9.222;2022-07-06T05:11:13;13.63;;;13.03;;
6485;SDS011;3276;48.490;9.222;2022-07-06T05:13:39;14.43;;;13.93;;
6485;SDS011;3276;48.490;9.222;2022-07-06T05:16:04;15.23;;;14.43;;
6485;SDS011;3276;48.490;9.222;2022-07-06T05:18:30;14.17;;;13.67;;
6485;SDS011;3276;48.490;9.222;2022-07-06T05:20:56;14.53;;;14.03;;
6485;SDS011;3276;48.490;9.222;2022-07-06T05:23:21;15.40;;;14.60;;
6485;SDS011;3276;48.490;9.222;2022-07-06T05:25:47;16.63;;;15.93;;
6485;SDS011;3276;48.490;9.222;2022-07-06T05:28:12;15.60;;;14.90;;
6485;SDS011;3276;48.490;9.222;2022-07-06T05:30:38;16.13;;;15.53;;
6485;SDS011;3276;48.490;9.222;2022-07-06T05:33:04;15.77;;;15.17;;
6485;SDS011;3276;48.490;9.222;2022-07-06T05:35:29;16.40;;;15.80;;
6485;SDS011;3276;48.490;9.222;2022-07-06T05:37:55;17.90;;;17.20;;
6485;SDS011;3276;48.490;9.222;2022-07-06T05:40:20;17.40;;;16.70;;
6485;SDS011;3276;48.490;9.222;2022-07-06T05:42:46;16.83;;;16.13;;
6485;SDS011;3276;48.490;9.222;2022-07-06T05:45:11;17.20;;;16.50;;
6485;SDS011;3276;48.490;9.222;2022-07-06T05:47:38;16.87;;;16.27;;
6485;SDS011;3276;48.490;9.222;2022-07-06T05:50:22;17.47;;;16.77;;
6485;SDS011;3276;48.490;9.222;2022-07-06T05:52:57;18.20;;;17.40;;
6485;SDS011;3276;48.490;9.222;2022-07-06T05:55:24;16.90;;;16.20;;
6485;SDS011;3276;48.490;9.222;2022-07-06T05:57:50;17.60;;;16.90;;
6485;SDS011;3276;48.490;9.222;2022-07-06T06:00:18;17.17;;;16.47;;
6485;SDS011;3276;48.490;9.222;2022-07-06T06:02:45;19.30;;;18.03;;
6485;SDS011;3276;48.490;9.222;2022-07-06T06:05:11;17.60;;;16.80;;
6485;SDS011;3276;48.490;9.222;2022-07-06T06:07:38;17.23;;;16.53;;
6485;SDS011;3276;48.490;9.222;2022-07-06T06:10:05;17.07;;;16.27;;
6485;SDS011;3276;48.490;9.222;2022-07-06T06:12:33;20.33;;;18.87;;
6485;SDS011;3276;48.490;9.222;2022-07-06T06:14:59;18.33;;;17.20;;
6485;SDS011;3276;48.490;9.222;2022-07-06T06:17:25;18.13;;;17.33;;
6485;SDS011;3276;48.490;9.222;2022-07-06T06:19:50;18.10;;;17.10;;
6485;SDS011;3276;48.490;9.222;2022-07-06T06:22:16;17.00;;;16.20;;
6485;SDS011;3276;48.490;9.222;2022-07-06T06:24:41;17.03;;;16.20;;
6485;SDS011;3276;48.490;9.222;2022-07-06T06:27:07;17.67;;;16.97;;
6485;SDS011;3276;48.490;9.222;2022-07-06T06:29:32;17.33;;;16.53;;
6485;SDS011;3276;48.490;9.222;2022-07-06T06:31:58;17.47;;;16.80;;
6485;SDS011;3276;48.490;9.222;2022-07-06T06:34:23;17.93;;;17.23;;
6485;SDS011;3276;48.490;9.222;2022-07-06T06:36:49;17.70;;;16.80;;
6485;SDS011;3276;48.490;9.222;2022-07-06T06:39:15;17.43;;;16.73;;
6485;SDS011;3276;48.490;9.222;2022-07-06T06:41:41;17.00;;;16.30;;
6485;SDS011;3276;48.490;9.222;2022-07-06T06:44:06;18.13;;;17.23;;
6485;SDS011;3276;48.490;9.222;2022-07-06T06:46:32;16.63;;;16.03;;
6485;SDS011;3276;48.490;9.222;2022-07-06T06:48:58;17.10;;;16.40;;
6485;SDS011;3276;48.490;9.222;2022-07-06T06:51:23;18.13;;;17.20;;
6485;SDS011;3276;48.490;9.222;2022-07-06T06:53:49;17.87;;;17.03;;
6485;SDS011;3276;48.490;9.222;2022-07-06T06:56:14;17.43;;;16.73;;
6485;SDS011;3276;48.490;9.222;2022-07-06T06:58:40;17.07;;;16.37;;
6485;SDS011;3276;48.490;9.222;2022-07-06T07:01:06;17.23;;;16.50;;
6485;SDS011;3276;48.490;9.222;2022-07-06T07:03:31;16.97;;;16.33;;
6485;SDS011;3276;48.490;9.222;2022-07-06T07:05:57;17.70;;;16.80;;
6485;SDS011;3276;48.490;9.222;2022-07-06T07:08:23;16.70;;;16.00;;
6485;SDS011;3276;48.490;9.222;2022-07-06T07:10:49;17.00;;;16.30;;
6485;SDS011;3276;48.490;9.222;2022-07-06T07:13:14;16.57;;;15.87;;
6485;SDS011;3276;48.490;9.222;2022-07-06T07:15:40;16.43;;;15.73;;
6485;SDS011;3276;48.490;9.222;2022-07-06T07:18:06;17.20;;;16.37;;
6485;SDS011;3276;48.490;9.222;2022-07-06T07:20:31;17.47;;;16.40;;
6485;SDS011;3276;48.490;9.222;2022-07-06T07:22:58;16.83;;;16.13;;
6485;SDS011;3276;48.490;9.222;2022-07-06T07:25:24;17.00;;;16.20;;
6485;SDS011;3276;48.490;9.222;2022-07-06T07:27:50;16.43;;;15.80;;
6485;SDS011;3276;48.490;9.222;2022-07-06T07:30:15;15.30;;;14.70;;
6485;SDS011;3276;48.490;9.222;2022-07-06T07:32:41;17.07;;;16.37;;
6485;SDS011;3276;48.490;9.222;2022-07-06T07:35:06;15.97;;;15.27;;
6485;SDS011;3276;48.490;9.222;2022-07-06T07:37:33;16.50;;;15.80;;
6485;SDS011;3276;48.490;9.222;2022-07-06T07:39:58;16.57;;;15.87;;
6485;SDS011;3276;48.490;9.222;2022-07-06T07:42:24;16.60;;;15.80;;
6485;SDS011;3276;48.490;9.222;2022-07-06T07:44:49;16.87;;;16.17;;
6485;SDS011;3276;48.490;9.222;2022-07-06T07:47:16;16.03;;;15.30;;
6485;SDS011;3276;48.490;9.222;2022-07-06T07:49:41;16.90;;;16.10;;
6485;SDS011;3276;48.490;9.222;2022-07-06T07:52:07;16.37;;;15.67;;
6485;SDS011;3276;48.490;9.222;2022-07-06T07:54:33;16.73;;;15.93;;
6485;SDS011;3276;48.490;9.222;2022-07-06T07:56:58;15.63;;;14.93;;
6485;SDS011;3276;48.490;9.222;2022-07-06T07:59:24;16.00;;;15.30;;
6485;SDS011;3276;48.490;9.222;2022-07-06T08:01:50;14.77;;;14.17;;
6485;SDS011;3276;48.490;9.222;2022-07-06T08:04:15;16.07;;;15.37;;
6485;SDS011;3276;48.490;9.222;2022-07-06T08:06:41;16.50;;;15.80;;
6485;SDS011;3276;48.490;9.222;2022-07-06T08:09:07;15.83;;;15.23;;
6485;SDS011;3276;48.490;9.222;2022-07-06T08:11:35;16.40;;;15.60;;
6485;SDS011;3276;48.490;9.222;2022-07-06T08:14:01;16.03;;;15.33;;
6485;SDS011;3276;48.490;9.222;2022-07-06T08:16:28;15.77;;;15.00;;
6485;SDS011;3276;48.490;9.222;2022-07-06T08:18:54;17.10;;;16.30;;
6485;SDS011;3276;48.490;9.222;2022-07-06T08:21:20;15.60;;;15.00;;
6485;SDS011;3276;48.490;9.222;2022-07-06T08:23:45;15.70;;;15.10;;
6485;SDS011;3276;48.490;9.222;2022-07-06T08:26:11;15.67;;;15.07;;
6485;SDS011;3276;48.490;9.222;2022-07-06T08:28:37;16.13;;;15.47;;
6485;SDS011;3276;48.490;9.222;2022-07-06T08:31:02;15.80;;;15.10;;
6485;SDS011;3276;48.490;9.222;2022-07-06T08:33:28;15.40;;;14.70;;
6485;SDS011;3276;48.490;9.222;2022-07-06T08:35:53;15.73;;;15.03;;
6485;SDS011;3276;48.490;9.222;2022-07-06T08:38:19;15.77;;;15.07;;
6485;SDS011;3276;48.490;9.222;2022-07-06T08:40:49;16.80;;;16.00;;
6485;SDS011;3276;48.490;9.222;2022-07-06T08:43:16;15.73;;;15.10;;
6485;SDS011;3276;48.490;9.222;2022-07-06T08:45:42;16.37;;;15.43;;
6485;SDS011;3276;48.490;9.222;2022-07-06T08:48:11;16.17;;;15.37;;
6485;SDS011;3276;48.490;9.222;2022-07-06T08:50:37;15.90;;;15.30;;
6485;SDS011;3276;48.490;9.222;2022-07-06T08:53:03;16.53;;;15.83;;
6485;SDS011;3276;48.490;9.222;2022-07-06T08:55:30;16.07;;;15.27;;
6485;SDS011;3276;48.490;9.222;2022-07-06T08:57:56;16.10;;;15.40;;
6485;SDS011;3276;48.490;9.222;2022-07-06T09:00:23;16.50;;;15.63;;
6485;SDS011;3276;48.490;9.222;2022-07-06T09:02:50;16.30;;;15.47;;
6485;SDS011;3276;48.490;9.222;2022-07-06T09:05:18;16.20;;;15.30;;
6485;SDS011;3276;48.490;9.222;2022-07-06T09:07:48;15.30;;;14.60;;
6485;SDS011;3276;48.490;9.222;2022-07-06T09:10:16;15.80;;;15.10;;
6485;SDS011;3276;48.490;9.222;2022-07-06T09:12:43;15.20;;;14.60;;
6485;SDS011;3276;48.490;9.222;2022-07-06T09:15:09;16.33;;;15.43;;
6485;SDS011;3276;48.490;9.222;2022-07-06T09:17:37;14.50;;;13.90;;
6485;SDS011;3276;48.490;9.222;2022-07-06T09:20:06;15.10;;;14.30;;
6485;SDS011;3276;48.490;9.222;2022-07-06T09:22:33;15.07;;;14.47;;
6485;SDS011;3276;48.490;9.222;2022-07-06T09:25:12;15.37;;;14.67;;
6485;SDS011;3276;48.490;9.222;2022-07-06T09:27:39;14.63;;;13.93;;
6485;SDS011;3276;48.490;9.222;2022-07-06T09:30:08;14.50;;;13.70;;
6485;SDS011;3276;48.490;9.222;2022-07-06T09:32:40;14.27;;;13.67;;
6485;SDS011;3276;48.490;9.222;2022-07-06T09:40:45;13.97;;;13.27;;
6485;SDS011;3276;48.490;9.222;2022-07-06T09:43:12;15.20;;;14.40;;
6485;SDS011;3276;48.490;9.222;2022-07-06T09:45:43;13.67;;;13.07;;
6485;SDS011;3276;48.490;9.222;2022-07-06T09:48:14;14.43;;;13.83;;
6485;SDS011;3276;48.490;9.222;2022-07-06T09:50:47;14.57;;;13.87;;
6485;SDS011;3276;48.490;9.222;2022-07-06T09:53:16;15.03;;;14.33;;
6485;SDS011;3276;48.490;9.222;2022-07-06T09:55:45;14.00;;;13.40;;
6485;SDS011;3276;48.490;9.222;2022-07-06T09:58:12;16.53;;;15.50;;
6485;SDS011;3276;48.490;9.222;2022-07-06T10:00:38;15.33;;;14.63;;
6485;SDS011;3276;48.490;9.222;2022-07-06T10:03:04;14.93;;;14.33;;
6485;SDS011;3276;48.490;9.222;2022-07-06T10:05:30;14.33;;;13.73;;
6485;SDS011;3276;48.490;9.222;2022-07-06T10:07:57;16.33;;;15.07;;
6485;SDS011;3276;48.490;9.222;2022-07-06T10:10:25;15.87;;;15.17;;
6485;SDS011;3276;48.490;9.222;2022-07-06T10:12:58;15.00;;;14.40;;
6485;SDS011;3276;48.490;9.222;2022-07-06T10:15:24;14.87;;;14.17;;
6485;SDS011;3276;48.490;9.222;2022-07-06T10:17:51;15.70;;;15.00;;
6485;SDS011;3276;48.490;9.222;2022-07-06T10:20:19;14.30;;;13.70;;
6485;SDS011;3276;48.490;9.222;2022-07-06T10:22:46;15.10;;;14.10;;
6485;SDS011;3276;48.490;9.222;2022-07-06T10:25:15;14.53;;;13.93;;
6485;SDS011;3276;48.490;9.222;2022-07-06T10:27:47;14.67;;;14.07;;
6485;SDS011;3276;48.490;9.222;2022-07-06T10:30:14;13.50;;;13.00;;
6485;SDS011;3276;48.490;9.222;2022-07-06T10:32:41;14.47;;;13.77;;
6485;SDS011;3276;48.490;9.222;2022-07-06T10:35:09;14.80;;;14.10;;
6485;SDS011;3276;48.490;9.222;2022-07-06T10:37:35;15.33;;;14.57;;
6485;SDS011;3276;48.490;9.222;2022-07-06T10:40:01;14.23;;;13.57;;
6485;SDS011;3276;48.490;9.222;2022-07-06T10:42:46;14.60;;;14.00;;
6485;SDS011;3276;48.490;9.222;2022-07-06T10:50:46;14.40;;;13.80;;
6485;SDS011;3276;48.490;9.222;2022-07-06T10:53:14;15.30;;;14.70;;
6485;SDS011;3276;48.490;9.222;2022-07-06T10:55:42;15.10;;;14.50;;
6485;SDS011;3276;48.490;9.222;2022-07-06T10:58:11;15.27;;;14.67;;
6485;SDS011;3276;48.490;9.222;2022-07-06T11:00:49;16.33;;;15.53;;
6485;SDS011;3276;48.490;9.222;2022-07-06T11:06:07;15.03;;;14.33;;
6485;SDS011;3276;48.490;9.222;2022-07-06T11:09:08;15.70;;;15.10;;
6485;SDS011;3276;48.490;9.222;2022-07-06T11:14:04;15.87;;;15.13;;
6485;SDS011;3276;48.490;9.222;2022-07-06T11:19:13;16.90;;;15.70;;
6485;SDS011;3276;48.490;9.222;2022-07-06T11:21:47;15.30;;;14.70;;
6485;SDS011;3276;48.490;9.222;2022-07-06T11:24:14;15.83;;;15.20;;
6485;SDS011;3276;48.490;9.222;2022-07-06T11:26:41;15.43;;;14.80;;
6485;SDS011;3276;48.490;9.222;2022-07-06T11:29:10;14.13;;;13.53;;
6485;SDS011;3276;48.490;9.222;2022-07-06T11:31:37;14.30;;;13.70;;
6485;SDS011;3276;48.490;9.222;2022-07-06T11:34:04;14.70;;;14.00;;
6485;SDS011;3276;48.490;9.222;2022-07-06T11:36:31;15.20;;;14.60;;
6485;SDS011;3276;48.490;9.222;2022-07-06T11:38:57;15.10;;;14.50;;
6485;SDS011;3276;48.490;9.222;2022-07-06T11:41:23;15.40;;;14.80;;
6485;SDS011;3276;48.490;9.222;2022-07-06T11:43:49;14.20;;;13.60;;
6485;SDS011;3276;48.490;9.222;2022-07-06T11:46:30;14.57;;;13.97;;
6485;SDS011;3276;48.490;9.222;2022-07-06T11:48:57;14.63;;;13.93;;
6485;SDS011;3276;48.490;9.222;2022-07-06T11:51:25;14.87;;;14.27;;
6485;SDS011;3276;48.490;9.222;2022-07-06T11:53:53;15.20;;;14.50;;
6485;SDS011;3276;48.490;9.222;2022-07-06T11:56:20;14.47;;;13.87;;
6485;SDS011;3276;48.490;9.222;2022-07-06T11:58:50;15.07;;;14.23;;
6485;SDS011;3276;48.490;9.222;2022-07-06T12:01:16;14.30;;;13.80;;
6485;SDS011;3276;48.490;9.222;2022-07-06T12:03:42;14.80;;;14.20;;
6485;SDS011;3276;48.490;9.222;2022-07-06T12:06:12;48.13;;;27.80;;
6485;SDS011;3276;48.490;9.222;2022-07-06T12:08:40;15.13;;;14.47;;
6485;SDS011;3276;48.490;9.222;2022-07-06T12:11:10;19.07;;;17.43;;
6485;SDS011;3276;48.490;9.222;2022-07-06T12:13:41;14.90;;;14.30;;
6485;SDS011;3276;48.490;9.222;2022-07-06T12:16:14;15.30;;;14.70;;
6485;SDS011;3276;48.490;9.222;2022-07-06T12:18:41;14.00;;;13.40;;
6485;SDS011;3276;48.490;9.222;2022-07-06T12:21:08;14.83;;;13.60;;
6485;SDS011;3276;48.490;9.222;2022-07-06T12:23:42;14.53;;;13.97;;
6485;SDS011;3276;48.490;9.222;2022-07-06T12:26:09;15.60;;;14.90;;
6485;SDS011;3276;48.490;9.222;2022-07-06T12:28:36;16.23;;;15.43;;
6485;SDS011;3276;48.490;9.222;2022-07-06T12:31:01;15.00;;;14.30;;
6485;SDS011;3276;48.490;9.222;2022-07-06T12:33:28;14.83;;;13.97;;
6485;SDS011;3276;48.490;9.222;2022-07-06T12:35:53;15.23;;;14.10;;
6485;SDS011;3276;48.490;9.222;2022-07-06T12:38:25;14.37;;;13.77;;
6485;SDS011;3276;48.490;9.222;2022-07-06T12:40:52;15.10;;;14.30;;
6485;SDS011;3276;48.490;9.222;2022-07-06T12:49:13;14.70;;;14.00;;
6485;SDS011;3276;48.490;9.222;2022-07-06T12:51:50;15.77;;;14.77;;
6485;SDS011;3276;48.490;9.222;2022-07-06T12:54:17;15.30;;;14.37;;
6485;SDS011;3276;48.490;9.222;2022-07-06T12:57:01;14.43;;;13.73;;
6485;SDS011;3276;48.490;9.222;2022-07-06T13:02:26;15.13;;;14.50;;
6485;SDS011;3276;48.490;9.222;2022-07-06T13:04:57;13.60;;;13.10;;
6485;SDS011;3276;48.490;9.222;2022-07-06T13:07:38;15.10;;;14.17;;
6485;SDS011;3276;48.490;9.222;2022-07-06T13:10:09;14.57;;;13.87;;
6485;SDS011;3276;48.490;9.222;2022-07-06T13:12:36;15.50;;;14.60;;
6485;SDS011;3276;48.490;9.222;2022-07-06T13:15:02;15.17;;;14.47;;
6485;SDS011;3276;48.490;9.222;2022-07-06T13:17:29;15.47;;;14.67;;
6485;SDS011;3276;48.490;9.222;2022-07-06T13:19:55;16.00;;;15.20;;
6485;SDS011;3276;48.490;9.222;2022-07-06T13:22:20;15.10;;;14.50;;
6485;SDS011;3276;48.490;9.222;2022-07-06T13:24:46;14.63;;;13.97;;
6485;SDS011;3276;48.490;9.222;2022-07-06T13:27:12;14.60;;;13.80;;
6485;SDS011;3276;48.490;9.222;2022-07-06T13:29:38;14.10;;;13.50;;
6485;SDS011;3276;48.490;9.222;2022-07-06T13:32:04;17.33;;;15.60;;
6485;SDS011;3276;48.490;9.222;2022-07-06T13:34:30;14.73;;;13.87;;
6485;SDS011;3276;48.490;9.222;2022-07-06T13:36:56;14.83;;;14.03;;
6485;SDS011;3276;48.490;9.222;2022-07-06T13:39:21;14.53;;;13.93;;
6485;SDS011;3276;48.490;9.222;2022-07-06T13:41:48;16.30;;;15.57;;
6485;SDS011;3276;48.490;9.222;2022-07-06T13:44:13;16.60;;;15.60;;
6485;SDS011;3276;48.490;9.222;2022-07-06T13:46:39;15.80;;;14.90;;
6485;SDS011;3276;48.490;9.222;2022-07-06T13:49:05;14.67;;;14.00;;
6485;SDS011;3276;48.490;9.222;2022-07-06T13:51:31;14.20;;;13.60;;
6485;SDS011;3276;48.490;9.222;2022-07-06T13:53:57;16.00;;;15.00;;
6485;SDS011;3276;48.490;9.222;2022-07-06T13:56:24;14.30;;;13.70;;
6485;SDS011;3276;48.490;9.222;2022-07-06T13:58:50;14.10;;;13.50;;
6485;SDS011;3276;48.490;9.222;2022-07-06T14:01:16;14.57;;;13.97;;
6485;SDS011;3276;48.490;9.222;2022-07-06T14:03:42;14.87;;;14.07;;
6485;SDS011;3276;48.490;9.222;2022-07-06T14:06:07;13.90;;;13.30;;
6485;SDS011;3276;48.490;9.222;2022-07-06T14:08:34;13.67;;;13.07;;
6485;SDS011;3276;48.490;9.222;2022-07-06T14:11:01;14.17;;;13.47;;
6485;SDS011;3276;48.490;9.222;2022-07-06T14:13:28;14.93;;;14.23;;
6485;SDS011;3276;48.490;9.222;2022-07-06T14:15:53;14.97;;;14.30;;
6485;SDS011;3276;48.490;9.222;2022-07-06T14:18:19;15.37;;;14.67;;
6485;SDS011;3276;48.490;9.222;2022-07-06T14:20:45;14.97;;;14.17;;
6485;SDS011;3276;48.490;9.222;2022-07-06T14:23:12;15.10;;;14.50;;
6485;SDS011;3276;48.490;9.222;2022-07-06T14:25:38;15.90;;;14.80;;
6485;SDS011;3276;48.490;9.222;2022-07-06T14:28:04;14.23;;;13.63;;
6485;SDS011;3276;48.490;9.222;2022-07-06T14:30:31;14.17;;;13.57;;
6485;SDS011;3276;48.490;9.222;2022-07-06T14:32:57;13.97;;;13.37;;
6485;SDS011;3276;48.490;9.222;2022-07-06T14:35:23;15.10;;;14.40;;
6485;SDS011;3276;48.490;9.222;2022-07-06T14:37:49;15.43;;;14.60;;
6485;SDS011;3276;48.490;9.222;2022-07-06T14:40:15;14.67;;;13.97;;
6485;SDS011;3276;48.490;9.222;2022-07-06T14:42:41;15.23;;;14.50;;
6485;SDS011;3276;48.490;9.222;2022-07-06T14:45:06;14.93;;;14.13;;
6485;SDS011;3276;48.490;9.222;2022-07-06T14:47:32;13.60;;;13.00;;
6485;SDS011;3276;48.490;9.222;2022-07-06T14:49:58;14.77;;;14.00;;
6485;SDS011;3276;48.490;9.222;2022-07-06T14:52:23;14.87;;;14.07;;
6485;SDS011;3276;48.490;9.222;2022-07-06T14:54:49;15.03;;;14.23;;
6485;SDS011;3276;48.490;9.222;2022-07-06T14:57:14;14.83;;;14.13;;
6485;SDS011;3276;48.490;9.222;2022-07-06T14:59:40;15.23;;;14.43;;
6485;SDS011;3276;48.490;9.222;2022-07-06T15:02:05;15.07;;;14.17;;
6485;SDS011;3276;48.490;9.222;2022-07-06T15:04:31;14.70;;;14.03;;
6485;SDS011;3276;48.490;9.222;2022-07-06T15:06:58;14.20;;;13.60;;
6485;SDS011;3276;48.490;9.222;2022-07-06T15:09:23;15.17;;;14.17;;
6485;SDS011;3276;48.490;9.222;2022-07-06T15:11:50;15.37;;;14.57;;
6485;SDS011;3276;48.490;9.222;2022-07-06T15:14:17;14.80;;;14.20;;
6485;SDS011;3276;48.490;9.222;2022-07-06T15:16:43;15.83;;;15.13;;
6485;SDS011;3276;48.490;9.222;2022-07-06T15:19:09;15.60;;;14.70;;
6485;SDS011;3276;48.490;9.222;2022-07-06T15:21:35;15.03;;;14.33;;
6485;SDS011;3276;48.490;9.222;2022-07-06T15:24:00;14.37;;;13.77;;